sensor_id;sensor_type;location;lat;lon;timestamp;temperature;humidity
46364;DHT22;32071;49.036;9.344;2022-08-23T00:02:05;15.70;99.90
46364;DHT22;32071;49.036;9.344;2022-08-23T00:04:36;15.60;99.90
46364;DHT22;32071;49.036;9.344;2022-08-23T00:07:04;15.60;99.90
46364;DHT22;32071;49.036;9.344;2022-08-23T00:09:30;15.50;99.90
46364;DHT22;32071;49.036;9.344;2022-08-23T00:12:15;15.40;99.90
46364;DHT22;32071;49.036;9.344;2022-08-23T00:14:52;15.40;99.90
46364;DHT22;32071;49.036;9.344;2022-08-23T00:17:18;15.40;99.90
46364;DHT22;32071;49.036;9.344;2022-08-23T00:19:44;15.40;99.90
46364;DHT22;32071;49.036;9.344;2022-08-23T00:22:11;15.30;99.90
46364;DHT22;32071;49.036;9.344;2022-08-23T00:24:37;15.20;99.90
46364;DHT22;32071;49.036;9.344;2022-08-23T00:27:09;15.20;99.90
46364;DHT22;32071;49.036;9.344;2022-08-23T00:29:45;15.10;99.90
46364;DHT22;32071;49.036;9.344;2022-08-23T00:32:24;15.10;99.90
46364;DHT22;32071;49.036;9.344;2022-08-23T00:34:50;15.10;99.90
46364;DHT22;32071;49.036;9.344;2022-08-23T00:37:16;15.10;99.90
46364;DHT22;32071;49.036;9.344;2022-08-23T00:39:42;15.10;99.90
46364;DHT22;32071;49.036;9.344;2022-08-23T00:44:58;15.10;99.90
46364;DHT22;32071;49.036;9.344;2022-08-23T00:47:44;15.00;99.90
46364;DHT22;32071;49.036;9.344;2022-08-23T00:50:22;15.00;99.90
46364;DHT22;32071;49.036;9.344;2022-08-23T00:53:05;15.00;99.90
46364;DHT22;32071;49.036;9.344;2022-08-23T00:55:33;15.00;99.90
46364;DHT22;32071;49.036;9.344;2022-08-23T00:57:59;15.00;99.90
46364;DHT22;32071;49.036;9.344;2022-08-23T01:00:26;15.00;99.90
46364;DHT22;32071;49.036;9.344;2022-08-23T01:02:52;15.00;99.90
46364;DHT22;32071;49.036;9.344;2022-08-23T01:05:21;14.90;99.90
46364;DHT22;32071;49.036;9.344;2022-08-23T01:07:51;14.90;99.90
46364;DHT22;32071;49.036;9.344;2022-08-23T01:10:26;14.90;99.90
46364;DHT22;32071;49.036;9.344;2022-08-23T01:13:04;14.90;99.90
46364;DHT22;32071;49.036;9.344;2022-08-23T01:15:34;14.90;99.90
46364;DHT22;32071;49.036;9.344;2022-08-23T01:18:05;14.90;99.90
46364;DHT22;32071;49.036;9.344;2022-08-23T01:20:46;14.80;99.90
46364;DHT22;32071;49.036;9.344;2022-08-23T01:23:29;14.80;99.90
46364;DHT22;32071;49.036;9.344;2022-08-23T01:25:55;14.80;99.90
46364;DHT22;32071;49.036;9.344;2022-08-23T01:28:22;14.80;99.90
46364;DHT22;32071;49.036;9.344;2022-08-23T01:30:48;14.70;99.90
46364;DHT22;32071;49.036;9.344;2022-08-23T01:33:14;14.60;99.90
46364;DHT22;32071;49.036;9.344;2022-08-23T01:35:46;14.60;99.90
46364;DHT22;32071;49.036;9.344;2022-08-23T01:38:14;14.60;99.90
46364;DHT22;32071;49.036;9.344;2022-08-23T01:40:41;14.50;99.90
46364;DHT22;32071;49.036;9.344;2022-08-23T01:43:08;14.50;99.90
46364;DHT22;32071;49.036;9.344;2022-08-23T01:45:35;14.50;99.90
46364;DHT22;32071;49.036;9.344;2022-08-23T01:48:01;14.40;99.90
46364;DHT22;32071;49.036;9.344;2022-08-23T01:50:27;14.40;99.90
46364;DHT22;32071;49.036;9.344;2022-08-23T01:52:53;14.40;99.90
46364;DHT22;32071;49.036;9.344;2022-08-23T01:55:20;14.40;99.90
46364;DHT22;32071;49.036;9.344;2022-08-23T01:57:48;14.30;99.90
46364;DHT22;32071;49.036;9.344;2022-08-23T02:00:14;14.30;99.90
46364;DHT22;32071;49.036;9.344;2022-08-23T02:02:40;14.20;99.90
46364;DHT22;32071;49.036;9.344;2022-08-23T02:05:09;14.20;99.90
46364;DHT22;32071;49.036;9.344;2022-08-23T02:07:34;14.10;99.90
46364;DHT22;32071;49.036;9.344;2022-08-23T02:10:00;14.00;99.90
46364;DHT22;32071;49.036;9.344;2022-08-23T02:12:26;14.00;99.90
46364;DHT22;32071;49.036;9.344;2022-08-23T02:14:52;13.90;99.90
46364;DHT22;32071;49.036;9.344;2022-08-23T02:17:17;13.90;99.90
46364;DHT22;32071;49.036;9.344;2022-08-23T02:19:43;13.90;99.90
46364;DHT22;32071;49.036;9.344;2022-08-23T02:22:10;13.80;99.90
46364;DHT22;32071;49.036;9.344;2022-08-23T02:24:41;13.80;99.90
46364;DHT22;32071;49.036;9.344;2022-08-23T02:27:07;13.80;99.90
46364;DHT22;32071;49.036;9.344;2022-08-23T02:29:33;13.80;99.90
46364;DHT22;32071;49.036;9.344;2022-08-23T02:32:00;13.80;99.90
46364;DHT22;32071;49.036;9.344;2022-08-23T02:34:26;13.80;99.90
46364;DHT22;32071;49.036;9.344;2022-08-23T02:36:54;13.90;99.90
46364;DHT22;32071;49.036;9.344;2022-08-23T02:39:19;13.90;99.90
46364;DHT22;32071;49.036;9.344;2022-08-23T02:41:45;14.00;99.90
46364;DHT22;32071;49.036;9.344;2022-08-23T02:44:12;14.00;99.90
46364;DHT22;32071;49.036;9.344;2022-08-23T02:46:38;14.00;99.90
46364;DHT22;32071;49.036;9.344;2022-08-23T02:49:05;14.00;99.90
46364;DHT22;32071;49.036;9.344;2022-08-23T02:51:30;13.90;99.90
46364;DHT22;32071;49.036;9.344;2022-08-23T02:53:56;13.90;99.90
46364;DHT22;32071;49.036;9.344;2022-08-23T02:56:22;13.80;99.90
46364;DHT22;32071;49.036;9.344;2022-08-23T02:58:49;13.80;99.90
46364;DHT22;32071;49.036;9.344;2022-08-23T03:01:20;13.80;99.90
46364;DHT22;32071;49.036;9.344;2022-08-23T03:03:46;13.90;99.90
46364;DHT22;32071;49.036;9.344;2022-08-23T03:06:15;13.90;99.90
46364;DHT22;32071;49.036;9.344;2022-08-23T03:08:41;13.80;99.90
46364;DHT22;32071;49.036;9.344;2022-08-23T03:11:12;13.90;99.90
46364;DHT22;32071;49.036;9.344;2022-08-23T03:13:42;13.90;99.90
46364;DHT22;32071;49.036;9.344;2022-08-23T03:16:09;13.90;99.90
46364;DHT22;32071;49.036;9.344;2022-08-23T03:18:36;13.90;99.90
46364;DHT22;32071;49.036;9.344;2022-08-23T03:21:03;13.90;99.90
46364;DHT22;32071;49.036;9.344;2022-08-23T03:23:28;13.90;99.90
46364;DHT22;32071;49.036;9.344;2022-08-23T03:25:56;13.90;99.90
46364;DHT22;32071;49.036;9.344;2022-08-23T03:28:23;13.90;99.90
46364;DHT22;32071;49.036;9.344;2022-08-23T03:30:48;13.90;99.90
46364;DHT22;32071;49.036;9.344;2022-08-23T03:33:14;13.80;99.90
46364;DHT22;32071;49.036;9.344;2022-08-23T03:35:40;13.80;99.90
46364;DHT22;32071;49.036;9.344;2022-08-23T03:38:06;13.70;99.90
46364;DHT22;32071;49.036;9.344;2022-08-23T03:40:31;13.70;99.90
46364;DHT22;32071;49.036;9.344;2022-08-23T03:42:57;13.70;99.90
46364;DHT22;32071;49.036;9.344;2022-08-23T03:45:22;13.70;99.90
46364;DHT22;32071;49.036;9.344;2022-08-23T03:47:48;13.70;99.90
46364;DHT22;32071;49.036;9.344;2022-08-23T03:50:14;13.70;99.90
46364;DHT22;32071;49.036;9.344;2022-08-23T03:52:39;13.70;99.90
46364;DHT22;32071;49.036;9.344;2022-08-23T03:55:05;13.60;99.90
46364;DHT22;32071;49.036;9.344;2022-08-23T03:57:31;13.60;99.90
46364;DHT22;32071;49.036;9.344;2022-08-23T03:59:56;13.50;99.90
46364;DHT22;32071;49.036;9.344;2022-08-23T04:02:24;13.50;99.90
46364;DHT22;32071;49.036;9.344;2022-08-23T04:04:50;13.50;99.90
46364;DHT22;32071;49.036;9.344;2022-08-23T04:07:20;13.50;99.90
46364;DHT22;32071;49.036;9.344;2022-08-23T04:09:45;13.50;99.90
46364;DHT22;32071;49.036;9.344;2022-08-23T04:12:12;13.40;99.90
46364;DHT22;32071;49.036;9.344;2022-08-23T04:14:37;13.40;99.90
46364;DHT22;32071;49.036;9.344;2022-08-23T04:17:03;13.30;99.90
46364;DHT22;32071;49.036;9.344;2022-08-23T04:19:29;13.30;99.90
46364;DHT22;32071;49.036;9.344;2022-08-23T04:21:56;13.30;99.90
46364;DHT22;32071;49.036;9.344;2022-08-23T04:24:21;13.30;99.90
46364;DHT22;32071;49.036;9.344;2022-08-23T04:26:47;13.30;99.90
46364;DHT22;32071;49.036;9.344;2022-08-23T04:29:13;13.20;99.90
46364;DHT22;32071;49.036;9.344;2022-08-23T04:31:42;13.20;99.90
46364;DHT22;32071;49.036;9.344;2022-08-23T04:34:07;13.20;99.90
46364;DHT22;32071;49.036;9.344;2022-08-23T04:36:36;13.20;99.90
46364;DHT22;32071;49.036;9.344;2022-08-23T04:39:03;13.30;99.90
46364;DHT22;32071;49.036;9.344;2022-08-23T04:41:28;13.20;99.90
46364;DHT22;32071;49.036;9.344;2022-08-23T04:44:12;13.20;99.90
46364;DHT22;32071;49.036;9.344;2022-08-23T04:46:39;13.30;99.90
46364;DHT22;32071;49.036;9.344;2022-08-23T04:49:05;13.30;99.90
46364;DHT22;32071;49.036;9.344;2022-08-23T04:51:31;13.30;99.90
46364;DHT22;32071;49.036;9.344;2022-08-23T04:53:57;13.40;99.90
46364;DHT22;32071;49.036;9.344;2022-08-23T04:56:22;13.40;99.90
46364;DHT22;32071;49.036;9.344;2022-08-23T04:58:48;13.40;99.90
46364;DHT22;32071;49.036;9.344;2022-08-23T05:01:13;13.50;99.90
46364;DHT22;32071;49.036;9.344;2022-08-23T05:03:41;13.50;99.90
46364;DHT22;32071;49.036;9.344;2022-08-23T05:06:06;13.50;99.90
46364;DHT22;32071;49.036;9.344;2022-08-23T05:08:32;13.60;99.90
46364;DHT22;32071;49.036;9.344;2022-08-23T05:11:03;13.70;99.90
46364;DHT22;32071;49.036;9.344;2022-08-23T05:13:29;13.70;99.90
46364;DHT22;32071;49.036;9.344;2022-08-23T05:15:56;13.80;99.90
46364;DHT22;32071;49.036;9.344;2022-08-23T05:18:22;13.80;99.90
46364;DHT22;32071;49.036;9.344;2022-08-23T05:20:48;13.90;99.90
46364;DHT22;32071;49.036;9.344;2022-08-23T05:23:13;14.00;99.90
46364;DHT22;32071;49.036;9.344;2022-08-23T05:25:39;14.00;99.90
46364;DHT22;32071;49.036;9.344;2022-08-23T05:28:21;14.00;99.90
46364;DHT22;32071;49.036;9.344;2022-08-23T05:31:02;14.10;99.90
46364;DHT22;32071;49.036;9.344;2022-08-23T05:33:30;14.20;99.90
46364;DHT22;32071;49.036;9.344;2022-08-23T05:35:56;14.30;99.90
46364;DHT22;32071;49.036;9.344;2022-08-23T05:38:23;14.40;99.90
46364;DHT22;32071;49.036;9.344;2022-08-23T05:40:50;14.50;99.90
46364;DHT22;32071;49.036;9.344;2022-08-23T05:43:17;14.60;99.90
46364;DHT22;32071;49.036;9.344;2022-08-23T05:45:43;14.70;99.90
46364;DHT22;32071;49.036;9.344;2022-08-23T05:48:09;14.80;99.90
46364;DHT22;32071;49.036;9.344;2022-08-23T05:50:36;14.90;99.90
46364;DHT22;32071;49.036;9.344;2022-08-23T05:53:02;15.00;99.90
46364;DHT22;32071;49.036;9.344;2022-08-23T05:55:28;15.10;99.90
46364;DHT22;32071;49.036;9.344;2022-08-23T05:57:53;15.20;99.90
46364;DHT22;32071;49.036;9.344;2022-08-23T06:00:19;15.30;99.90
46364;DHT22;32071;49.036;9.344;2022-08-23T06:02:48;15.40;99.90
46364;DHT22;32071;49.036;9.344;2022-08-23T06:05:15;15.50;99.90
46364;DHT22;32071;49.036;9.344;2022-08-23T06:07:41;15.60;99.90
46364;DHT22;32071;49.036;9.344;2022-08-23T06:10:07;15.80;99.90
46364;DHT22;32071;49.036;9.344;2022-08-23T06:12:33;15.80;99.90
46364;DHT22;32071;49.036;9.344;2022-08-23T06:14:59;15.90;99.90
46364;DHT22;32071;49.036;9.344;2022-08-23T06:17:25;16.00;99.90
46364;DHT22;32071;49.036;9.344;2022-08-23T06:19:50;16.20;99.90
46364;DHT22;32071;49.036;9.344;2022-08-23T06:22:16;16.30;99.90
46364;DHT22;32071;49.036;9.344;2022-08-23T06:24:43;16.40;99.90
46364;DHT22;32071;49.036;9.344;2022-08-23T06:27:10;16.40;99.90
46364;DHT22;32071;49.036;9.344;2022-08-23T06:29:35;16.50;99.90
46364;DHT22;32071;49.036;9.344;2022-08-23T06:32:03;16.60;99.90
46364;DHT22;32071;49.036;9.344;2022-08-23T06:34:32;16.70;99.90
46364;DHT22;32071;49.036;9.344;2022-08-23T06:37:00;16.80;99.90
46364;DHT22;32071;49.036;9.344;2022-08-23T06:39:28;16.90;99.90
46364;DHT22;32071;49.036;9.344;2022-08-23T06:42:15;17.00;99.90
46364;DHT22;32071;49.036;9.344;2022-08-23T06:44:40;17.00;99.90
46364;DHT22;32071;49.036;9.344;2022-08-23T06:47:07;17.10;99.90
46364;DHT22;32071;49.036;9.344;2022-08-23T06:49:32;17.20;99.90
46364;DHT22;32071;49.036;9.344;2022-08-23T06:52:00;17.30;99.90
46364;DHT22;32071;49.036;9.344;2022-08-23T06:54:29;17.30;99.90
46364;DHT22;32071;49.036;9.344;2022-08-23T06:56:56;17.40;99.90
46364;DHT22;32071;49.036;9.344;2022-08-23T06:59:22;17.50;99.90
46364;DHT22;32071;49.036;9.344;2022-08-23T07:01:53;17.50;99.90
46364;DHT22;32071;49.036;9.344;2022-08-23T07:04:30;17.60;99.90
46364;DHT22;32071;49.036;9.344;2022-08-23T07:06:57;17.80;99.90
46364;DHT22;32071;49.036;9.344;2022-08-23T07:09:23;18.00;99.90
46364;DHT22;32071;49.036;9.344;2022-08-23T07:11:49;18.10;99.90
46364;DHT22;32071;49.036;9.344;2022-08-23T07:14:17;18.20;99.90
46364;DHT22;32071;49.036;9.344;2022-08-23T07:16:54;18.30;99.90
46364;DHT22;32071;49.036;9.344;2022-08-23T07:19:22;18.50;99.90
46364;DHT22;32071;49.036;9.344;2022-08-23T07:21:49;18.60;99.90
46364;DHT22;32071;49.036;9.344;2022-08-23T07:24:16;18.70;99.90
46364;DHT22;32071;49.036;9.344;2022-08-23T07:26:43;18.80;99.90
46364;DHT22;32071;49.036;9.344;2022-08-23T07:29:10;18.90;99.90
46364;DHT22;32071;49.036;9.344;2022-08-23T07:31:52;18.90;99.90
46364;DHT22;32071;49.036;9.344;2022-08-23T07:34:18;19.00;99.90
46364;DHT22;32071;49.036;9.344;2022-08-23T07:36:45;19.20;99.90
46364;DHT22;32071;49.036;9.344;2022-08-23T07:39:12;19.30;99.90
46364;DHT22;32071;49.036;9.344;2022-08-23T07:41:40;19.40;99.90
46364;DHT22;32071;49.036;9.344;2022-08-23T07:44:07;19.70;99.90
46364;DHT22;32071;49.036;9.344;2022-08-23T07:46:34;19.90;99.90
46364;DHT22;32071;49.036;9.344;2022-08-23T07:49:02;20.00;99.90
46364;DHT22;32071;49.036;9.344;2022-08-23T07:51:30;20.20;99.90
46364;DHT22;32071;49.036;9.344;2022-08-23T07:53:57;20.30;99.40
46364;DHT22;32071;49.036;9.344;2022-08-23T07:56:23;20.50;97.40
46364;DHT22;32071;49.036;9.344;2022-08-23T07:58:49;20.80;97.00
46364;DHT22;32071;49.036;9.344;2022-08-23T08:01:17;21.10;96.70
46364;DHT22;32071;49.036;9.344;2022-08-23T08:03:45;21.30;95.20
46364;DHT22;32071;49.036;9.344;2022-08-23T08:06:16;21.40;95.00
46364;DHT22;32071;49.036;9.344;2022-08-23T08:08:42;21.50;95.50
46364;DHT22;32071;49.036;9.344;2022-08-23T08:11:09;21.60;95.00
46364;DHT22;32071;49.036;9.344;2022-08-23T08:13:39;21.70;93.50
46364;DHT22;32071;49.036;9.344;2022-08-23T08:16:05;21.90;94.20
46364;DHT22;32071;49.036;9.344;2022-08-23T08:18:31;21.90;93.40
46364;DHT22;32071;49.036;9.344;2022-08-23T08:20:57;22.00;92.60
46364;DHT22;32071;49.036;9.344;2022-08-23T08:23:23;22.10;93.40
46364;DHT22;32071;49.036;9.344;2022-08-23T08:25:48;22.20;92.60
46364;DHT22;32071;49.036;9.344;2022-08-23T08:28:23;22.40;92.40
46364;DHT22;32071;49.036;9.344;2022-08-23T08:30:48;22.40;92.50
46364;DHT22;32071;49.036;9.344;2022-08-23T08:33:14;22.40;92.60
46364;DHT22;32071;49.036;9.344;2022-08-23T08:35:39;22.50;91.70
46364;DHT22;32071;49.036;9.344;2022-08-23T08:38:05;22.60;92.00
46364;DHT22;32071;49.036;9.344;2022-08-23T08:40:33;22.60;92.00
46364;DHT22;32071;49.036;9.344;2022-08-23T08:43:26;22.70;92.10
46364;DHT22;32071;49.036;9.344;2022-08-23T08:46:20;22.70;90.80
46364;DHT22;32071;49.036;9.344;2022-08-23T08:48:49;22.70;91.20
46364;DHT22;32071;49.036;9.344;2022-08-23T08:51:35;22.90;91.50
46364;DHT22;32071;49.036;9.344;2022-08-23T08:54:05;23.00;91.50
46364;DHT22;32071;49.036;9.344;2022-08-23T08:56:33;23.00;91.80
46364;DHT22;32071;49.036;9.344;2022-08-23T08:59:13;23.10;90.60
46364;DHT22;32071;49.036;9.344;2022-08-23T09:01:43;23.30;90.70
46364;DHT22;32071;49.036;9.344;2022-08-23T09:04:09;23.40;89.20
46364;DHT22;32071;49.036;9.344;2022-08-23T09:06:56;23.50;88.70
46364;DHT22;32071;49.036;9.344;2022-08-23T09:20:10;24.10;85.70
46364;DHT22;32071;49.036;9.344;2022-08-23T09:22:40;24.20;85.10
46364;DHT22;32071;49.036;9.344;2022-08-23T09:25:11;24.40;83.70
46364;DHT22;32071;49.036;9.344;2022-08-23T09:27:40;24.60;82.90
46364;DHT22;32071;49.036;9.344;2022-08-23T09:30:08;24.60;83.30
46364;DHT22;32071;49.036;9.344;2022-08-23T09:32:36;24.70;82.80
46364;DHT22;32071;49.036;9.344;2022-08-23T09:35:14;24.80;80.50
46364;DHT22;32071;49.036;9.344;2022-08-23T09:37:58;24.90;80.30
46364;DHT22;32071;49.036;9.344;2022-08-23T09:40:28;24.90;79.20
46364;DHT22;32071;49.036;9.344;2022-08-23T09:45:37;25.00;78.50
46364;DHT22;32071;49.036;9.344;2022-08-23T09:48:04;25.10;78.40
46364;DHT22;32071;49.036;9.344;2022-08-23T09:50:39;25.10;78.60
46364;DHT22;32071;49.036;9.344;2022-08-23T09:53:09;25.30;78.60
46364;DHT22;32071;49.036;9.344;2022-08-23T09:55:36;25.50;78.10
46364;DHT22;32071;49.036;9.344;2022-08-23T09:58:07;25.60;78.00
46364;DHT22;32071;49.036;9.344;2022-08-23T10:00:40;25.80;73.90
46364;DHT22;32071;49.036;9.344;2022-08-23T10:03:26;25.90;73.70
46364;DHT22;32071;49.036;9.344;2022-08-23T10:05:56;25.80;73.00
46364;DHT22;32071;49.036;9.344;2022-08-23T10:08:26;25.80;73.80
46364;DHT22;32071;49.036;9.344;2022-08-23T10:10:55;25.90;74.20
46364;DHT22;32071;49.036;9.344;2022-08-23T10:13:22;26.00;72.70
46364;DHT22;32071;49.036;9.344;2022-08-23T10:24:07;26.30;72.10
46364;DHT22;32071;49.036;9.344;2022-08-23T10:26:40;26.40;72.10
46364;DHT22;32071;49.036;9.344;2022-08-23T10:32:31;26.70;70.80
46364;DHT22;32071;49.036;9.344;2022-08-23T10:35:20;26.70;70.10
46364;DHT22;32071;49.036;9.344;2022-08-23T10:38:01;26.80;69.90
46364;DHT22;32071;49.036;9.344;2022-08-23T10:44:13;27.10;69.50
46364;DHT22;32071;49.036;9.344;2022-08-23T10:46:52;27.10;68.00
46364;DHT22;32071;49.036;9.344;2022-08-23T10:49:20;27.10;68.20
46364;DHT22;32071;49.036;9.344;2022-08-23T10:51:47;27.20;68.80
46364;DHT22;32071;49.036;9.344;2022-08-23T10:54:47;27.30;69.30
46364;DHT22;32071;49.036;9.344;2022-08-23T10:57:32;27.50;69.00
46364;DHT22;32071;49.036;9.344;2022-08-23T11:00:03;27.70;66.50
46364;DHT22;32071;49.036;9.344;2022-08-23T11:05:18;27.70;64.50
46364;DHT22;32071;49.036;9.344;2022-08-23T11:07:57;27.50;65.50
46364;DHT22;32071;49.036;9.344;2022-08-23T11:18:06;28.00;65.40
46364;DHT22;32071;49.036;9.344;2022-08-23T11:26:02;28.50;63.70
46364;DHT22;32071;49.036;9.344;2022-08-23T11:31:25;28.80;61.10
46364;DHT22;32071;49.036;9.344;2022-08-23T11:33:52;28.80;61.80
46364;DHT22;32071;49.036;9.344;2022-08-23T11:36:25;29.10;60.20
46364;DHT22;32071;49.036;9.344;2022-08-23T11:41:28;28.90;63.00
46364;DHT22;32071;49.036;9.344;2022-08-23T11:49:24;28.30;64.10
46364;DHT22;32071;49.036;9.344;2022-08-23T11:58:29;29.10;60.30
46364;DHT22;32071;49.036;9.344;2022-08-23T12:03:25;29.40;60.00
46364;DHT22;32071;49.036;9.344;2022-08-23T12:06:05;29.30;60.10
46364;DHT22;32071;49.036;9.344;2022-08-23T12:08:54;29.40;60.00
46364;DHT22;32071;49.036;9.344;2022-08-23T12:11:22;29.40;59.80
46364;DHT22;32071;49.036;9.344;2022-08-23T12:14:01;29.40;61.30
46364;DHT22;32071;49.036;9.344;2022-08-23T12:16:37;29.40;68.40
46364;DHT22;32071;49.036;9.344;2022-08-23T12:19:05;29.60;65.60
46364;DHT22;32071;49.036;9.344;2022-08-23T12:21:45;29.80;62.40
46364;DHT22;32071;49.036;9.344;2022-08-23T12:24:23;30.10;60.20
46364;DHT22;32071;49.036;9.344;2022-08-23T12:27:10;30.10;59.80
46364;DHT22;32071;49.036;9.344;2022-08-23T12:30:19;30.30;60.90
46364;DHT22;32071;49.036;9.344;2022-08-23T12:41:18;31.00;57.30
46364;DHT22;32071;49.036;9.344;2022-08-23T12:44:17;30.40;59.70
46364;DHT22;32071;49.036;9.344;2022-08-23T12:46:45;29.80;61.80
46364;DHT22;32071;49.036;9.344;2022-08-23T12:49:31;29.50;58.70
46364;DHT22;32071;49.036;9.344;2022-08-23T12:52:05;29.30;58.30
46364;DHT22;32071;49.036;9.344;2022-08-23T12:54:39;29.10;57.10
46364;DHT22;32071;49.036;9.344;2022-08-23T12:57:13;29.40;60.30
46364;DHT22;32071;49.036;9.344;2022-08-23T12:59:57;29.60;60.10
46364;DHT22;32071;49.036;9.344;2022-08-23T13:02:28;29.70;57.50
46364;DHT22;32071;49.036;9.344;2022-08-23T13:04:58;29.90;61.20
46364;DHT22;32071;49.036;9.344;2022-08-23T13:07:26;30.20;56.60
46364;DHT22;32071;49.036;9.344;2022-08-23T13:09:52;30.30;54.50
46364;DHT22;32071;49.036;9.344;2022-08-23T13:12:18;30.60;57.50
46364;DHT22;32071;49.036;9.344;2022-08-23T13:14:48;30.90;55.50
46364;DHT22;32071;49.036;9.344;2022-08-23T13:20:38;31.70;56.60
46364;DHT22;32071;49.036;9.344;2022-08-23T13:23:01;32.00;54.10
46364;DHT22;32071;49.036;9.344;2022-08-23T13:25:39;31.70;55.00
46364;DHT22;32071;49.036;9.344;2022-08-23T13:28:26;31.70;54.20
46364;DHT22;32071;49.036;9.344;2022-08-23T13:31:04;31.70;55.90
46364;DHT22;32071;49.036;9.344;2022-08-23T13:33:30;31.70;51.30
46364;DHT22;32071;49.036;9.344;2022-08-23T13:36:11;31.40;53.90
46364;DHT22;32071;49.036;9.344;2022-08-23T13:38:37;31.00;56.50
46364;DHT22;32071;49.036;9.344;2022-08-23T13:41:06;31.10;57.60
46364;DHT22;32071;49.036;9.344;2022-08-23T13:48:59;30.70;52.30
46364;DHT22;32071;49.036;9.344;2022-08-23T13:54:04;30.60;52.50
46364;DHT22;32071;49.036;9.344;2022-08-23T13:56:34;30.50;51.30
46364;DHT22;32071;49.036;9.344;2022-08-23T14:01:54;30.20;53.10
46364;DHT22;32071;49.036;9.344;2022-08-23T14:04:20;30.40;51.90
46364;DHT22;32071;49.036;9.344;2022-08-23T14:06:46;30.80;51.60
46364;DHT22;32071;49.036;9.344;2022-08-23T14:09:13;31.10;52.50
46364;DHT22;32071;49.036;9.344;2022-08-23T14:11:38;31.30;51.70
46364;DHT22;32071;49.036;9.344;2022-08-23T14:14:04;31.30;50.40
46364;DHT22;32071;49.036;9.344;2022-08-23T14:16:33;31.40;50.00
46364;DHT22;32071;49.036;9.344;2022-08-23T14:19:00;31.60;49.30
46364;DHT22;32071;49.036;9.344;2022-08-23T14:21:26;31.50;55.80
46364;DHT22;32071;49.036;9.344;2022-08-23T14:23:51;31.20;56.90
46364;DHT22;32071;49.036;9.344;2022-08-23T14:26:18;30.80;56.40
46364;DHT22;32071;49.036;9.344;2022-08-23T14:28:46;30.40;53.20
46364;DHT22;32071;49.036;9.344;2022-08-23T14:31:12;30.10;52.70
46364;DHT22;32071;49.036;9.344;2022-08-23T14:33:38;29.90;52.20
46364;DHT22;32071;49.036;9.344;2022-08-23T14:36:05;29.60;53.30
46364;DHT22;32071;49.036;9.344;2022-08-23T14:38:30;29.60;55.60
46364;DHT22;32071;49.036;9.344;2022-08-23T14:40:59;29.60;55.10
46364;DHT22;32071;49.036;9.344;2022-08-23T14:43:28;29.60;55.50
46364;DHT22;32071;49.036;9.344;2022-08-23T14:45:54;29.60;55.10
46364;DHT22;32071;49.036;9.344;2022-08-23T14:48:20;29.70;54.70
46364;DHT22;32071;49.036;9.344;2022-08-23T14:50:47;29.70;58.10
46364;DHT22;32071;49.036;9.344;2022-08-23T14:53:15;30.00;57.80
46364;DHT22;32071;49.036;9.344;2022-08-23T14:55:41;31.90;55.30
46364;DHT22;32071;49.036;9.344;2022-08-23T14:58:07;33.30;52.70
46364;DHT22;32071;49.036;9.344;2022-08-23T15:00:33;33.30;52.30
46364;DHT22;32071;49.036;9.344;2022-08-23T15:03:01;33.60;52.20
46364;DHT22;32071;49.036;9.344;2022-08-23T15:05:28;34.70;47.40
46364;DHT22;32071;49.036;9.344;2022-08-23T15:07:54;34.20;45.90
46364;DHT22;32071;49.036;9.344;2022-08-23T15:10:20;34.30;46.40
46364;DHT22;32071;49.036;9.344;2022-08-23T15:12:46;35.90;46.90
46364;DHT22;32071;49.036;9.344;2022-08-23T15:15:15;37.20;43.90
46364;DHT22;32071;49.036;9.344;2022-08-23T15:17:49;36.80;45.00
46364;DHT22;32071;49.036;9.344;2022-08-23T15:20:18;36.90;44.50
46364;DHT22;32071;49.036;9.344;2022-08-23T15:22:44;38.70;41.60
46364;DHT22;32071;49.036;9.344;2022-08-23T15:25:10;39.90;39.60
46364;DHT22;32071;49.036;9.344;2022-08-23T15:27:36;41.00;38.80
46364;DHT22;32071;49.036;9.344;2022-08-23T15:30:03;41.90;35.30
46364;DHT22;32071;49.036;9.344;2022-08-23T15:32:29;42.10;33.70
46364;DHT22;32071;49.036;9.344;2022-08-23T15:34:54;43.50;33.60
46364;DHT22;32071;49.036;9.344;2022-08-23T15:37:20;44.80;30.40
46364;DHT22;32071;49.036;9.344;2022-08-23T15:39:46;45.90;29.10
46364;DHT22;32071;49.036;9.344;2022-08-23T15:42:12;46.30;28.60
46364;DHT22;32071;49.036;9.344;2022-08-23T15:44:38;46.40;28.20
46364;DHT22;32071;49.036;9.344;2022-08-23T15:47:04;46.60;28.40
46364;DHT22;32071;49.036;9.344;2022-08-23T15:49:37;47.40;28.10
46364;DHT22;32071;49.036;9.344;2022-08-23T15:52:04;47.10;27.50
46364;DHT22;32071;49.036;9.344;2022-08-23T15:54:29;45.10;27.90
46364;DHT22;32071;49.036;9.344;2022-08-23T15:56:55;43.60;28.90
46364;DHT22;32071;49.036;9.344;2022-08-23T15:59:21;40.80;30.40
46364;DHT22;32071;49.036;9.344;2022-08-23T16:01:47;40.60;31.30
46364;DHT22;32071;49.036;9.344;2022-08-23T16:04:12;40.30;31.60
46364;DHT22;32071;49.036;9.344;2022-08-23T16:06:38;41.00;31.70
46364;DHT22;32071;49.036;9.344;2022-08-23T16:09:07;41.20;30.60
46364;DHT22;32071;49.036;9.344;2022-08-23T16:11:36;39.80;32.00
46364;DHT22;32071;49.036;9.344;2022-08-23T16:14:02;38.40;33.70
46364;DHT22;32071;49.036;9.344;2022-08-23T16:16:29;38.50;33.30
46364;DHT22;32071;49.036;9.344;2022-08-23T16:18:57;38.80;34.00
46364;DHT22;32071;49.036;9.344;2022-08-23T16:21:24;39.30;32.90
46364;DHT22;32071;49.036;9.344;2022-08-23T16:23:52;39.90;32.50
46364;DHT22;32071;49.036;9.344;2022-08-23T16:26:20;40.80;33.00
46364;DHT22;32071;49.036;9.344;2022-08-23T16:28:49;41.40;32.60
46364;DHT22;32071;49.036;9.344;2022-08-23T16:31:15;41.90;32.10
46364;DHT22;32071;49.036;9.344;2022-08-23T16:33:41;42.50;31.40
46364;DHT22;32071;49.036;9.344;2022-08-23T16:36:09;43.00;30.20
46364;DHT22;32071;49.036;9.344;2022-08-23T16:38:34;43.40;30.00
46364;DHT22;32071;49.036;9.344;2022-08-23T16:41:00;43.90;29.70
46364;DHT22;32071;49.036;9.344;2022-08-23T16:43:26;43.70;29.40
46364;DHT22;32071;49.036;9.344;2022-08-23T16:45:52;43.40;29.70
46364;DHT22;32071;49.036;9.344;2022-08-23T16:48:18;43.40;30.20
46364;DHT22;32071;49.036;9.344;2022-08-23T16:50:44;43.10;30.80
46364;DHT22;32071;49.036;9.344;2022-08-23T16:53:09;43.30;30.10
46364;DHT22;32071;49.036;9.344;2022-08-23T16:55:37;42.80;30.20
46364;DHT22;32071;49.036;9.344;2022-08-23T16:58:04;42.80;31.40
46364;DHT22;32071;49.036;9.344;2022-08-23T17:00:30;42.50;30.70
46364;DHT22;32071;49.036;9.344;2022-08-23T17:02:56;41.20;32.10
46364;DHT22;32071;49.036;9.344;2022-08-23T17:05:22;40.10;32.40
46364;DHT22;32071;49.036;9.344;2022-08-23T17:07:49;39.30;33.60
46364;DHT22;32071;49.036;9.344;2022-08-23T17:12:45;36.10;37.80
46364;DHT22;32071;49.036;9.344;2022-08-23T17:15:15;34.60;41.60